Time;durP1;ratioP1;P1;durP2;ratioP2;P2;SDS_P1;SDS_P2;PMS_P1;PMS_P2;Temp;Humidity;BMP_temperature;BMP_pressure;BME280_temperature;BME280_humidity;BME280_pressure;Samples;Min_cycle;Max_cycle;Signal;HPM_P1;HPM_P2
2023/04/18 00:00:19;;;;;;;;;;;17.50;47.40;;;;;;5034162;28;20453;-66
2023/04/18 00:02:45;;;;;;;;;;;17.50;47.40;;;;;;5034078;28;19921;-74
2023/04/18 00:05:11;;;;;;;;;;;17.50;47.30;;;;;;5051943;28;19927;-66
2023/04/18 00:07:37;;;;;;;;;;;17.50;47.30;;;;;;5034512;28;19921;-66
2023/04/18 00:10:03;;;;;;;;;;;17.50;47.30;;;;;;5034600;28;19928;-66
2023/04/18 00:12:30;;;;;;;;;;;17.40;47.30;;;;;;5034303;28;19932;-66
2023/04/18 00:14:57;;;;;;;;;;;17.40;47.30;;;;;;5034094;28;19928;-66
2023/04/18 00:17:25;;;;;;;;;;;17.40;47.30;;;;;;5051918;28;20315;-66
2023/04/18 00:19:51;;;;;;;;;;;17.40;47.40;;;;;;5033776;28;19931;-72
2023/04/18 00:22:21;;;;;;;;;;;17.40;47.40;;;;;;5052058;28;20023;-66
2023/04/18 00:24:48;;;;;;;;;;;17.40;47.40;;;;;;5033805;28;20299;-72
2023/04/18 00:27:14;;;;;;;;;;;17.40;47.40;;;;;;5051926;28;19921;-66
2023/04/18 00:29:41;;;;;;;;;;;17.30;47.40;;;;;;5033910;28;20437;-73
2023/04/18 00:32:07;;;;;;;;;;;17.30;47.40;;;;;;5051807;28;20019;-73
2023/04/18 00:34:32;;;;;;;;;;;17.30;47.30;;;;;;5034098;28;20020;-66
2023/04/18 00:36:58;;;;;;;;;;;17.30;47.30;;;;;;5033868;28;20434;-66
2023/04/18 00:39:23;;;;;;;;;;;17.30;47.30;;;;;;5033667;28;20179;-73
2023/04/18 00:41:49;;;;;;;;;;;17.30;47.30;;;;;;5050389;28;19920;-65
2023/04/18 00:44:14;;;;;;;;;;;17.30;47.30;;;;;;5051558;28;19944;-66
2023/04/18 00:46:40;;;;;;;;;;;17.30;47.30;;;;;;5034292;28;20372;-73
2023/04/18 00:49:05;;;;;;;;;;;17.30;47.30;;;;;;5055227;28;19966;-72
2023/04/18 00:51:32;;;;;;;;;;;17.30;47.30;;;;;;5037337;28;19921;-66
2023/04/18 00:53:57;;;;;;;;;;;17.30;47.30;;;;;;5055244;28;19920;-71
2023/04/18 00:56:24;;;;;;;;;;;17.20;47.20;;;;;;5055296;28;19927;-65
2023/04/18 00:58:50;;;;;;;;;;;17.20;47.20;;;;;;5037259;28;19921;-66
2023/04/18 01:01:16;;;;;;;;;;;17.20;47.20;;;;;;5037258;28;19931;-66
2023/04/18 01:03:42;;;;;;;;;;;17.20;47.20;;;;;;5054999;28;19928;-73
2023/04/18 01:06:08;;;;;;;;;;;17.20;47.30;;;;;;5054820;28;20059;-66
2023/04/18 01:08:33;;;;;;;;;;;17.20;47.30;;;;;;5037048;28;19974;-66
2023/04/18 01:10:59;;;;;;;;;;;17.20;47.30;;;;;;5054740;28;19990;-65
2023/04/18 01:13:24;;;;;;;;;;;17.20;47.30;;;;;;5037226;28;19927;-66
2023/04/18 01:15:50;;;;;;;;;;;17.10;47.30;;;;;;5036878;28;19927;-66
2023/04/18 01:18:16;;;;;;;;;;;17.20;47.40;;;;;;5037190;28;19920;-66
2023/04/18 01:20:45;;;;;;;;;;;17.10;47.30;;;;;;5036742;28;19978;-73
2023/04/18 01:23:11;;;;;;;;;;;17.10;47.40;;;;;;5036667;28;19977;-66
2023/04/18 01:25:37;;;;;;;;;;;17.10;47.30;;;;;;5036693;28;19924;-66
2023/04/18 01:28:03;;;;;;;;;;;17.10;47.30;;;;;;5054656;28;20272;-66
2023/04/18 01:30:29;;;;;;;;;;;17.10;47.40;;;;;;5054533;28;20003;-66
2023/04/18 01:32:54;;;;;;;;;;;17.10;47.40;;;;;;5054459;28;19920;-66
2023/04/18 01:35:20;;;;;;;;;;;17.10;47.30;;;;;;5036754;28;19921;-67
2023/04/18 01:37:45;;;;;;;;;;;17.30;47.10;;;;;;5036853;28;19925;-66
2023/04/18 01:40:11;;;;;;;;;;;17.60;46.60;;;;;;5036098;28;20475;-66
2023/04/18 01:42:36;;;;;;;;;;;18.00;45.90;;;;;;5036618;28;19921;-73
2023/04/18 01:45:03;;;;;;;;;;;18.30;45.20;;;;;;5054328;28;20011;-66
2023/04/18 01:47:28;;;;;;;;;;;18.70;44.40;;;;;;5054218;28;19974;-73
2023/04/18 01:49:54;;;;;;;;;;;19.20;43.60;;;;;;5036557;28;19932;-66
2023/04/18 01:52:19;;;;;;;;;;;19.70;42.60;;;;;;5053951;28;20218;-72
2023/04/18 01:54:45;;;;;;;;;;;20.20;41.70;;;;;;5036095;28;19927;-66
2023/04/18 01:57:10;;;;;;;;;;;20.50;40.90;;;;;;5036009;28;19921;-65
2023/04/18 01:59:36;;;;;;;;;;;20.70;40.40;;;;;;5053987;28;20040;-66
2023/04/18 02:02:01;;;;;;;;;;;20.90;40.10;;;;;;5053941;28;20186;-66
2023/04/18 02:04:27;;;;;;;;;;;21.00;39.90;;;;;;5053842;28;20031;-65
2023/04/18 02:06:52;;;;;;;;;;;20.90;39.80;;;;;;5036048;28;20288;-66
2023/04/18 02:09:18;;;;;;;;;;;20.90;39.70;;;;;;5036174;28;19979;-66
2023/04/18 02:11:43;;;;;;;;;;;20.80;39.80;;;;;;5035687;28;20338;-66
2023/04/18 02:14:09;;;;;;;;;;;20.70;39.80;;;;;;5036097;28;19932;-66
2023/04/18 02:16:34;;;;;;;;;;;20.60;40.00;;;;;;5053509;28;20291;-66
2023/04/18 02:19:00;;;;;;;;;;;20.50;40.20;;;;;;5053465;28;19951;-66
2023/04/18 02:21:26;;;;;;;;;;;20.30;40.40;;;;;;5035777;28;19920;-73
2023/04/18 02:23:51;;;;;;;;;;;20.20;40.60;;;;;;5035427;28;20018;-66
2023/04/18 02:26:17;;;;;;;;;;;20.00;40.80;;;;;;5035817;28;19925;-66
2023/04/18 02:28:42;;;;;;;;;;;19.90;41.00;;;;;;5053243;28;19928;-66
2023/04/18 02:31:13;;;;;;;;;;;19.80;41.20;;;;;;5053434;28;19963;-66
2023/04/18 02:33:41;;;;;;;;;;;19.60;41.40;;;;;;5035620;28;20300;-66
2023/04/18 02:36:06;;;;;;;;;;;19.60;41.70;;;;;;5035620;28;19927;-74
2023/04/18 02:38:32;;;;;;;;;;;19.40;41.90;;;;;;5035187;28;20339;-66
2023/04/18 02:40:57;;;;;;;;;;;19.20;42.10;;;;;;5052884;28;19925;-66
2023/04/18 02:43:22;;;;;;;;;;;19.20;42.30;;;;;;5053068;28;19921;-66
2023/04/18 02:45:48;;;;;;;;;;;19.00;42.40;;;;;;5053083;28;20316;-66
2023/04/18 02:48:14;;;;;;;;;;;18.90;42.60;;;;;;5035125;28;19929;-66
2023/04/18 02:50:39;;;;;;;;;;;18.80;42.80;;;;;;5053029;28;19921;-67
2023/04/18 02:53:05;;;;;;;;;;;18.70;43.00;;;;;;5052812;28;19920;-66
2023/04/18 02:55:30;;;;;;;;;;;18.60;43.20;;;;;;5035285;28;20376;-66
2023/04/18 02:57:56;;;;;;;;;;;18.50;44.10;;;;;;5052810;28;20376;-66
2023/04/18 03:00:22;;;;;;;;;;;18.40;43.50;;;;;;5035025;28;19928;-66
2023/04/18 03:02:47;;;;;;;;;;;18.30;43.60;;;;;;5052772;28;19925;-66
2023/04/18 03:05:13;;;;;;;;;;;18.20;43.80;;;;;;5034739;28;19928;-66
2023/04/18 03:07:38;;;;;;;;;;;18.10;43.80;;;;;;5052794;28;20011;-66
2023/04/18 03:10:04;;;;;;;;;;;18.10;43.90;;;;;;5034342;28;19920;-66
2023/04/18 03:12:30;;;;;;;;;;;18.10;44.10;;;;;;5052817;28;19921;-66
2023/04/18 03:14:55;;;;;;;;;;;18.00;44.10;;;;;;5052560;28;19921;-66
2023/04/18 03:17:21;;;;;;;;;;;18.00;44.00;;;;;;5034956;28;19921;-66
2023/04/18 03:19:46;;;;;;;;;;;18.20;43.80;;;;;;5052371;28;19925;-66
2023/04/18 03:22:12;;;;;;;;;;;18.40;43.40;;;;;;5052482;28;19927;-66
2023/04/18 03:24:38;;;;;;;;;;;18.60;43.00;;;;;;5052346;28;20360;-66
2023/04/18 03:27:04;;;;;;;;;;;18.80;42.60;;;;;;5052672;28;19978;-66
2023/04/18 03:29:29;;;;;;;;;;;19.00;42.10;;;;;;5034947;28;19927;-66
2023/04/18 03:31:55;;;;;;;;;;;19.10;41.80;;;;;;5052413;28;19927;-66
2023/04/18 03:34:21;;;;;;;;;;;19.20;41.50;;;;;;5052355;28;19928;-66
2023/04/18 03:36:46;;;;;;;;;;;19.40;41.20;;;;;;5034751;28;19924;-66
2023/04/18 03:39:12;;;;;;;;;;;19.50;41.00;;;;;;5034074;28;20491;-66
2023/04/18 03:41:37;;;;;;;;;;;19.60;40.80;;;;;;5034292;28;19969;-66
2023/04/18 03:44:03;;;;;;;;;;;19.50;40.70;;;;;;5052223;28;19930;-66
2023/04/18 03:46:28;;;;;;;;;;;19.50;40.70;;;;;;5052312;28;19925;-67
2023/04/18 03:48:54;;;;;;;;;;;19.50;40.70;;;;;;5034295;28;20303;-66
2023/04/18 03:51:19;;;;;;;;;;;19.50;40.70;;;;;;5034192;28;19920;-66
2023/04/18 03:53:45;;;;;;;;;;;19.40;40.80;;;;;;5034541;28;19921;-66
2023/04/18 03:56:10;;;;;;;;;;;19.30;40.80;;;;;;5051825;28;19943;-66
2023/04/18 03:58:36;;;;;;;;;;;19.20;40.90;;;;;;5034225;28;19928;-67
2023/04/18 04:01:01;;;;;;;;;;;19.20;41.10;;;;;;5051885;28;19921;-66
2023/04/18 04:03:27;;;;;;;;;;;19.10;41.30;;;;;;5034525;28;19924;-66
2023/04/18 04:05:53;;;;;;;;;;;19.00;41.40;;;;;;5034005;28;20376;-66
2023/04/18 04:08:20;;;;;;;;;;;18.90;41.60;;;;;;5052037;28;20436;-66
2023/04/18 04:10:45;;;;;;;;;;;18.80;41.70;;;;;;5034359;28;20388;-66
2023/04/18 04:13:11;;;;;;;;;;;18.70;41.90;;;;;;5052430;28;19959;-66
2023/04/18 04:15:37;;;;;;;;;;;18.70;42.10;;;;;;5034358;28;20304;-66
2023/04/18 04:18:03;;;;;;;;;;;18.60;42.10;;;;;;5034439;28;20369;-67
2023/04/18 04:20:29;;;;;;;;;;;18.50;42.20;;;;;;5034013;28;19931;-66
2023/04/18 04:22:55;;;;;;;;;;;18.40;42.30;;;;;;5054357;28;20296;-66
2023/04/18 04:25:23;;;;;;;;;;;18.40;42.40;;;;;;5038122;28;19928;-66
2023/04/18 04:27:52;;;;;;;;;;;18.40;42.50;;;;;;5037661;28;20034;-67
2023/04/18 04:30:18;;;;;;;;;;;18.40;42.60;;;;;;5055845;28;20288;-66
2023/04/18 04:32:43;;;;;;;;;;;18.40;42.50;;;;;;5055710;28;19920;-66
2023/04/18 04:35:09;;;;;;;;;;;18.50;42.30;;;;;;5055680;28;19925;-66
2023/04/18 04:37:34;;;;;;;;;;;18.70;42.10;;;;;;5037460;28;20365;-66
2023/04/18 04:40:00;;;;;;;;;;;18.90;41.80;;;;;;5055240;28;19924;-66
2023/04/18 04:42:27;;;;;;;;;;;19.00;41.40;;;;;;5055220;28;19960;-66
2023/04/18 04:44:53;;;;;;;;;;;19.30;41.10;;;;;;5037496;28;19925;-66
2023/04/18 04:47:18;;;;;;;;;;;19.30;40.70;;;;;;5055293;28;19925;-66
2023/04/18 04:49:44;;;;;;;;;;;19.50;40.40;;;;;;5037470;28;20259;-66
2023/04/18 04:52:09;;;;;;;;;;;19.60;40.20;;;;;;5037241;28;19927;-66
2023/04/18 04:54:35;;;;;;;;;;;19.60;39.90;;;;;;5055207;28;19920;-67
2023/04/18 04:57:01;;;;;;;;;;;19.70;39.80;;;;;;5054995;28;19967;-66
2023/04/18 04:59:26;;;;;;;;;;;19.70;39.70;;;;;;5037261;28;19924;-66
2023/04/18 05:01:51;;;;;;;;;;;19.70;39.70;;;;;;5037354;28;19921;-66
2023/04/18 05:04:17;;;;;;;;;;;19.70;39.70;;;;;;5055007;28;19928;-66
2023/04/18 05:06:44;;;;;;;;;;;19.60;39.70;;;;;;5037373;28;20011;-66
2023/04/18 05:09:09;;;;;;;;;;;19.50;39.80;;;;;;5037341;28;19924;-66
2023/04/18 05:11:35;;;;;;;;;;;19.40;40.00;;;;;;5037217;28;19920;-67
2023/04/18 05:14:00;;;;;;;;;;;19.40;40.20;;;;;;5036813;28;20384;-66
2023/04/18 05:16:26;;;;;;;;;;;19.20;40.40;;;;;;5036891;28;19929;-67
2023/04/18 05:18:51;;;;;;;;;;;19.20;40.60;;;;;;5036006;28;19983;-65
2023/04/18 05:21:17;;;;;;;;;;;19.10;40.90;;;;;;5036709;28;20301;-65
2023/04/18 05:23:42;;;;;;;;;;;18.90;41.30;;;;;;5036728;28;20004;-68
2023/04/18 05:26:08;;;;;;;;;;;18.80;42.10;;;;;;5036994;28;20070;-66
2023/04/18 05:28:33;;;;;;;;;;;18.70;42.60;;;;;;5048329;28;19920;-66
2023/04/18 05:31:00;;;;;;;;;;;18.70;43.20;;;;;;5036384;28;19939;-67
2023/04/18 05:33:26;;;;;;;;;;;18.50;43.50;;;;;;5053378;28;19921;-67
2023/04/18 05:35:52;;;;;;;;;;;18.50;44.00;;;;;;5054330;28;19931;-66
2023/04/18 05:38:17;;;;;;;;;;;18.50;44.30;;;;;;5054243;28;19921;-66
2023/04/18 05:40:43;;;;;;;;;;;18.40;44.50;;;;;;5052707;28;19924;-66
2023/04/18 05:43:08;;;;;;;;;;;18.40;44.70;;;;;;5053422;28;19924;-65
2023/04/18 05:45:34;;;;;;;;;;;18.40;44.80;;;;;;5033522;28;19942;-65
2023/04/18 05:47:59;;;;;;;;;;;18.30;44.90;;;;;;5034665;28;19928;-65
2023/04/18 05:50:25;;;;;;;;;;;18.30;45.00;;;;;;5031114;28;19936;-65
2023/04/18 05:52:50;;;;;;;;;;;18.20;45.10;;;;;;5041111;28;19921;-65
2023/04/18 05:55:16;;;;;;;;;;;18.20;45.10;;;;;;5032950;28;19943;-67
2023/04/18 05:57:41;;;;;;;;;;;18.10;45.20;;;;;;5034286;28;19924;-67
2023/04/18 06:00:10;;;;;;;;;;;18.10;45.40;;;;;;5033816;28;19925;-67
2023/04/18 06:02:36;;;;;;;;;;;18.10;45.50;;;;;;5031668;28;19925;-67
2023/04/18 06:05:01;;;;;;;;;;;18.10;45.50;;;;;;5036608;28;19928;-67
2023/04/18 06:07:27;;;;;;;;;;;18.10;45.70;;;;;;5047354;28;19921;-65
2023/04/18 06:09:53;;;;;;;;;;;18.10;45.50;;;;;;5046338;28;19979;-65
2023/04/18 06:12:19;;;;;;;;;;;18.20;45.50;;;;;;5048103;28;19925;-65
2023/04/18 06:14:44;;;;;;;;;;;18.20;45.30;;;;;;5042196;28;20011;-64
2023/04/18 06:17:11;;;;;;;;;;;18.30;45.10;;;;;;5027034;28;19941;-67
2023/04/18 06:19:38;;;;;;;;;;;18.40;45.00;;;;;;5026192;28;19956;-64
2023/04/18 06:22:04;;;;;;;;;;;18.50;44.90;;;;;;5022286;28;19956;-65
2023/04/18 06:24:29;;;;;;;;;;;18.60;44.80;;;;;;5038283;28;20442;-66
2023/04/18 06:26:58;;;;;;;;;;;18.70;44.70;;;;;;5036921;28;19982;-64
2023/04/18 06:29:26;;;;;;;;;;;18.70;44.70;;;;;;4999980;28;20331;-65
2023/04/18 06:31:51;;;;;;;;;;;18.80;44.80;;;;;;5011114;28;19921;-65
2023/04/18 06:34:16;;;;;;;;;;;18.70;44.80;;;;;;5043987;28;20426;-65
2023/04/18 06:36:42;;;;;;;;;;;18.70;44.80;;;;;;5043911;28;19921;-64
2023/04/18 06:39:08;;;;;;;;;;;18.70;45.00;;;;;;5039067;28;19928;-68
2023/04/18 06:41:33;;;;;;;;;;;18.60;45.30;;;;;;5020226;28;19940;-65
2023/04/18 06:43:59;;;;;;;;;;;18.60;45.60;;;;;;5044083;28;19925;-63
2023/04/18 06:46:24;;;;;;;;;;;18.60;45.50;;;;;;5039851;28;20128;-65
2023/04/18 06:48:50;;;;;;;;;;;18.50;45.70;;;;;;5019726;28;19925;-69
2023/04/18 06:51:16;;;;;;;;;;;18.50;45.90;;;;;;5020213;28;19927;-66
2023/04/18 06:53:41;;;;;;;;;;;18.40;46.10;;;;;;5020159;28;19991;-65
2023/04/18 06:56:07;;;;;;;;;;;18.30;46.00;;;;;;5037239;28;20096;-66
2023/04/18 06:58:32;;;;;;;;;;;18.30;46.10;;;;;;5026535;28;20208;-66
2023/04/18 07:00:58;;;;;;;;;;;18.20;46.30;;;;;;5038439;28;20511;-66
2023/04/18 07:03:23;;;;;;;;;;;18.10;46.60;;;;;;5017190;28;20403;-65
2023/04/18 07:05:49;;;;;;;;;;;18.10;46.80;;;;;;5015269;28;20212;-66
2023/04/18 07:08:15;;;;;;;;;;;18.00;47.00;;;;;;5024676;28;19974;-64
2023/04/18 07:10:41;;;;;;;;;;;17.80;47.10;;;;;;5033395;28;20038;-64
2023/04/18 07:13:06;;;;;;;;;;;17.80;47.40;;;;;;5021581;28;19929;-64
2023/04/18 07:15:33;;;;;;;;;;;17.80;47.60;;;;;;5021538;28;20383;-64
2023/04/18 07:17:58;;;;;;;;;;;17.80;47.70;;;;;;5033199;28;19975;-65
2023/04/18 07:20:24;;;;;;;;;;;17.80;47.70;;;;;;5034470;28;19929;-63
2023/04/18 07:22:49;;;;;;;;;;;17.80;47.70;;;;;;5022325;28;20388;-64
2023/04/18 07:25:15;;;;;;;;;;;17.90;47.60;;;;;;5044877;28;19931;-65
2023/04/18 07:27:40;;;;;;;;;;;18.00;47.50;;;;;;5017891;28;20699;-65
2023/04/18 07:30:06;;;;;;;;;;;18.10;47.20;;;;;;5038582;28;20209;-65
2023/04/18 07:32:32;;;;;;;;;;;18.30;47.00;;;;;;5023590;28;20307;-65
2023/04/18 07:34:58;;;;;;;;;;;18.50;46.70;;;;;;5019669;28;19921;-64
2023/04/18 07:37:23;;;;;;;;;;;18.60;46.30;;;;;;5038695;28;19922;-64
2023/04/18 07:39:50;;;;;;;;;;;18.70;45.90;;;;;;5026435;28;20382;-64
2023/04/18 07:42:15;;;;;;;;;;;18.90;45.50;;;;;;5038100;28;19967;-64
2023/04/18 07:44:42;;;;;;;;;;;18.90;45.20;;;;;;5040514;28;19924;-64
2023/04/18 07:47:09;;;;;;;;;;;18.90;45.00;;;;;;5022520;28;19935;-65
2023/04/18 07:49:34;;;;;;;;;;;19.00;44.80;;;;;;5020213;28;19929;-64
2023/04/18 07:52:00;;;;;;;;;;;19.40;44.70;;;;;;5035746;28;19925;-65
2023/04/18 07:54:26;;;;;;;;;;;19.80;44.00;;;;;;5037611;28;19983;-64
2023/04/18 07:56:51;;;;;;;;;;;20.20;43.40;;;;;;5019644;28;20255;-64
2023/04/18 07:59:17;;;;;;;;;;;20.70;42.60;;;;;;5040118;28;19932;-64
2023/04/18 08:01:42;;;;;;;;;;;21.10;41.50;;;;;;5016192;28;19964;-63
2023/04/18 08:04:08;;;;;;;;;;;21.60;40.70;;;;;;5042170;28;19929;-64
2023/04/18 08:06:33;;;;;;;;;;;22.00;40.10;;;;;;5044224;28;19955;-65
2023/04/18 08:09:03;;;;;;;;;;;22.20;39.60;;;;;;5044158;28;20391;-65
2023/04/18 08:11:28;;;;;;;;;;;22.50;39.10;;;;;;5028118;28;20140;-65
2023/04/18 08:13:54;;;;;;;;;;;22.70;38.70;;;;;;5041869;28;19920;-64
2023/04/18 08:16:20;;;;;;;;;;;22.80;38.50;;;;;;5021423;28;20058;-64
2023/04/18 08:18:45;;;;;;;;;;;22.90;38.30;;;;;;5024923;28;19928;-63
2023/04/18 08:21:11;;;;;;;;;;;23.10;37.90;;;;;;5046254;28;20420;-63
2023/04/18 08:23:37;;;;;;;;;;;23.30;37.80;;;;;;5043539;28;20401;-63
2023/04/18 08:26:02;;;;;;;;;;;23.50;38.60;;;;;;5027700;28;19929;-63
2023/04/18 08:28:28;;;;;;;;;;;23.60;37.40;;;;;;5042456;28;19986;-63
2023/04/18 08:30:55;;;;;;;;;;;23.60;37.20;;;;;;5044228;28;19975;-64
2023/04/18 08:33:22;;;;;;;;;;;23.60;37.10;;;;;;5038079;28;19925;-65
2023/04/18 08:35:49;;;;;;;;;;;23.70;37.20;;;;;;5022470;28;19924;-66
2023/04/18 08:38:16;;;;;;;;;;;23.70;37.20;;;;;;5033250;28;20388;-64
2023/04/18 08:40:42;;;;;;;;;;;23.80;36.90;;;;;;5044026;28;19928;-64
2023/04/18 08:43:08;;;;;;;;;;;24.00;36.80;;;;;;5025247;28;19925;-64
2023/04/18 08:45:34;;;;;;;;;;;24.20;36.60;;;;;;5019758;28;20287;-64
2023/04/18 08:48:01;;;;;;;;;;;24.30;36.40;;;;;;5037995;28;19929;-64
2023/04/18 08:50:27;;;;;;;;;;;24.30;36.40;;;;;;5044570;28;20358;-65
2023/04/18 08:52:53;;;;;;;;;;;24.30;36.40;;;;;;5025108;28;19931;-65
2023/04/18 08:55:21;;;;;;;;;;;24.40;36.20;;;;;;5025881;28;19925;-64
2023/04/18 08:57:46;;;;;;;;;;;24.30;36.20;;;;;;5036967;28;20225;-64
2023/04/18 09:00:12;;;;;;;;;;;24.40;36.50;;;;;;5040566;28;20379;-65
2023/04/18 09:02:41;;;;;;;;;;;24.40;36.00;;;;;;5041954;28;19971;-65
2023/04/18 09:05:09;;;;;;;;;;;24.20;35.90;;;;;;5024108;28;19932;-64
2023/04/18 09:07:35;;;;;;;;;;;24.10;36.40;;;;;;5040190;28;20016;-64
2023/04/18 09:10:00;;;;;;;;;;;24.00;36.60;;;;;;5041144;28;19958;-65
2023/04/18 09:12:26;;;;;;;;;;;24.00;36.80;;;;;;5022948;28;19924;-65
2023/04/18 09:14:56;;;;;;;;;;;23.90;36.80;;;;;;5023105;28;19928;-64
2023/04/18 09:17:42;;;;;;;;;;;24.00;37.00;;;;;;5018013;28;19921;-65
2023/04/18 09:20:09;;;;;;;;;;;24.00;37.10;;;;;;5040047;28;20079;-64
2023/04/18 09:22:56;;;;;;;;;;;24.00;37.10;;;;;;5017440;28;19929;-66
2023/04/18 09:25:23;;;;;;;;;;;23.90;36.80;;;;;;5025770;28;19931;-66
2023/04/18 09:27:49;;;;;;;;;;;23.80;37.10;;;;;;5038239;28;19936;-65
2023/04/18 09:30:27;;;;;;;;;;;23.70;37.40;;;;;;5032288;28;19924;-65
2023/04/18 09:32:56;;;;;;;;;;;23.70;37.60;;;;;;5030578;28;19978;-66
2023/04/18 09:35:23;;;;;;;;;;;23.60;37.90;;;;;;5042850;28;19931;-63
2023/04/18 09:37:50;;;;;;;;;;;23.50;37.80;;;;;;5039366;28;19929;-64
2023/04/18 09:40:17;;;;;;;;;;;23.50;38.20;;;;;;5034431;28;19928;-64
2023/04/18 09:42:43;;;;;;;;;;;23.50;38.30;;;;;;5039050;28;19932;-64
2023/04/18 09:45:09;;;;;;;;;;;23.40;38.60;;;;;;5024356;28;20533;-65
2023/04/18 09:47:36;;;;;;;;;;;23.40;38.80;;;;;;5039482;28;19980;-65
2023/04/18 09:50:02;;;;;;;;;;;23.30;39.10;;;;;;5022837;28;19932;-65
2023/04/18 09:52:31;;;;;;;;;;;23.20;39.20;;;;;;5028498;28;19928;-65
2023/04/18 09:54:57;;;;;;;;;;;23.20;39.00;;;;;;5038820;28;19929;-66
2023/04/18 09:57:25;;;;;;;;;;;23.10;38.80;;;;;;5018898;28;19929;-66
2023/04/18 09:59:53;;;;;;;;;;;23.00;38.20;;;;;;5036950;28;19956;-66
2023/04/18 10:02:20;;;;;;;;;;;22.90;38.50;;;;;;5023467;28;19956;-66
2023/04/18 10:04:47;;;;;;;;;;;22.90;38.50;;;;;;5044270;28;19940;-66
2023/04/18 10:07:14;;;;;;;;;;;22.90;38.30;;;;;;5015824;28;19925;-67
2023/04/18 10:09:43;;;;;;;;;;;22.80;38.60;;;;;;5024425;28;20016;-66
2023/04/18 10:12:11;;;;;;;;;;;22.70;38.90;;;;;;5019766;28;19929;-64
2023/04/18 10:14:38;;;;;;;;;;;22.70;39.10;;;;;;5019342;28;19921;-64
2023/04/18 10:17:03;;;;;;;;;;;22.60;39.20;;;;;;5033708;28;19925;-65
2023/04/18 10:19:29;;;;;;;;;;;22.50;38.90;;;;;;5037485;28;19925;-64
2023/04/18 10:21:55;;;;;;;;;;;22.50;39.00;;;;;;5018398;28;20002;-64
2023/04/18 10:24:40;;;;;;;;;;;22.50;39.40;;;;;;5011688;28;19932;-65
2023/04/18 10:27:06;;;;;;;;;;;22.40;39.20;;;;;;5036167;28;19983;-65
2023/04/18 10:32:27;;;;;;;;;;;22.30;39.10;;;;;;5072090;28;19946;-65
2023/04/18 10:34:53;;;;;;;;;;;22.10;39.30;;;;;;5054253;28;19924;-64
2023/04/18 10:37:18;;;;;;;;;;;22.10;39.50;;;;;;5057391;28;19924;-64
2023/04/18 10:42:47;;;;;;;;;;;21.90;39.60;;;;;;5090751;27;19948;-66
2023/04/18 10:45:20;;;;;;;;;;;21.90;39.70;;;;;;5066508;28;19920;-63
2023/04/18 10:47:46;;;;;;;;;;;22.00;39.90;;;;;;5070293;28;20204;-63
2023/04/18 10:50:12;;;;;;;;;;;22.20;39.90;;;;;;5066603;28;19920;-63
2023/04/18 10:52:37;;;;;;;;;;;22.30;39.50;;;;;;5069915;28;20002;-65
2023/04/18 10:55:07;;;;;;;;;;;22.40;39.00;;;;;;5064934;28;19927;-64
2023/04/18 10:57:37;;;;;;;;;;;22.40;39.30;;;;;;5066666;28;19924;-63
2023/04/18 11:00:04;;;;;;;;;;;22.50;39.10;;;;;;5065965;28;19974;-67
2023/04/18 11:02:31;;;;;;;;;;;22.60;38.90;;;;;;5088273;28;20174;-65
2023/04/18 11:04:57;;;;;;;;;;;22.60;39.00;;;;;;5075268;28;19976;-64
2023/04/18 11:07:31;;;;;;;;;;;22.60;38.80;;;;;;5086702;28;19934;-65
2023/04/18 11:09:57;;;;;;;;;;;22.70;38.80;;;;;;5068422;28;19958;-65
2023/04/18 11:12:22;;;;;;;;;;;22.70;38.70;;;;;;5085169;28;19927;-65
2023/04/18 11:14:50;;;;;;;;;;;22.70;38.70;;;;;;5087375;28;19928;-71
2023/04/18 11:17:17;;;;;;;;;;;22.70;38.80;;;;;;5073611;28;19954;-66
2023/04/18 11:19:43;;;;;;;;;;;22.70;38.80;;;;;;5063853;28;19920;-66
2023/04/18 11:22:08;;;;;;;;;;;22.70;38.80;;;;;;5071445;28;19939;-65
2023/04/18 11:24:34;;;;;;;;;;;22.80;38.80;;;;;;5071373;28;20046;-64
2023/04/18 11:27:02;;;;;;;;;;;22.80;38.90;;;;;;5086819;28;19982;-65
2023/04/18 11:29:27;;;;;;;;;;;22.80;38.90;;;;;;5085670;28;20354;-65
2023/04/18 11:31:53;;;;;;;;;;;22.80;39.00;;;;;;5088234;28;20035;-65
2023/04/18 11:34:19;;;;;;;;;;;22.70;38.90;;;;;;5073875;28;19928;-68
2023/04/18 11:36:49;;;;;;;;;;;22.60;39.20;;;;;;5087687;28;19923;-64
2023/04/18 11:39:15;;;;;;;;;;;22.70;39.00;;;;;;5085271;28;20026;-63
2023/04/18 11:41:40;;;;;;;;;;;22.70;39.10;;;;;;5068690;28;20361;-71
2023/04/18 11:44:06;;;;;;;;;;;22.80;39.10;;;;;;5068484;28;19924;-63
2023/04/18 11:46:38;;;;;;;;;;;22.90;39.00;;;;;;5086138;28;19969;-64
2023/04/18 11:49:04;;;;;;;;;;;22.90;38.80;;;;;;5066943;28;20372;-64
2023/04/18 11:51:30;;;;;;;;;;;22.80;38.80;;;;;;5085036;28;19927;-69
2023/04/18 11:53:55;;;;;;;;;;;22.70;38.90;;;;;;5067434;28;19924;-64
2023/04/18 11:56:21;;;;;;;;;;;22.80;38.90;;;;;;5050720;28;19924;-63
2023/04/18 11:58:47;;;;;;;;;;;22.80;38.80;;;;;;5073493;28;20291;-64
2023/04/18 12:01:14;;;;;;;;;;;22.70;38.90;;;;;;5043985;28;20434;-65
2023/04/18 12:03:41;;;;;;;;;;;22.80;39.10;;;;;;5052311;28;19931;-68
2023/04/18 12:06:06;;;;;;;;;;;22.80;39.10;;;;;;5070694;28;20019;-65
2023/04/18 12:08:32;;;;;;;;;;;22.90;39.10;;;;;;5070414;28;20011;-64
2023/04/18 12:10:57;;;;;;;;;;;22.90;39.10;;;;;;5048762;28;19924;-66
2023/04/18 12:13:24;;;;;;;;;;;22.90;39.10;;;;;;5070185;28;20034;-67
2023/04/18 12:15:50;;;;;;;;;;;23.00;39.80;;;;;;5072100;28;20332;-65
2023/04/18 12:18:16;;;;;;;;;;;23.10;39.20;;;;;;5047905;28;20508;-67
2023/04/18 12:20:48;;;;;;;;;;;23.10;39.20;;;;;;5052337;28;20017;-68
2023/04/18 12:23:34;;;;;;;;;;;23.20;39.30;;;;;;5070322;28;19924;-65
2023/04/18 12:26:00;;;;;;;;;;;23.30;39.40;;;;;;5063954;28;20378;-66
2023/04/18 12:28:26;;;;;;;;;;;23.20;39.50;;;;;;5068748;28;20432;-65
2023/04/18 12:30:51;;;;;;;;;;;23.20;39.50;;;;;;5053367;28;20290;-65
2023/04/18 12:33:18;;;;;;;;;;;23.10;39.50;;;;;;5069357;28;19932;-65
2023/04/18 12:35:44;;;;;;;;;;;23.10;39.60;;;;;;5063369;28;20403;-73
2023/04/18 12:38:09;;;;;;;;;;;23.20;39.70;;;;;;5046547;28;19985;-63
2023/04/18 12:40:37;;;;;;;;;;;23.10;39.60;;;;;;5047853;28;19936;-66
2023/04/18 12:43:02;;;;;;;;;;;23.10;39.60;;;;;;5056482;28;20434;-64
2023/04/18 12:45:28;;;;;;;;;;;23.10;39.60;;;;;;5068888;28;19975;-63
2023/04/18 12:47:53;;;;;;;;;;;23.00;39.40;;;;;;5047342;28;20050;-66
2023/04/18 12:50:20;;;;;;;;;;;23.00;39.40;;;;;;5068812;28;19935;-67
2023/04/18 12:52:46;;;;;;;;;;;23.10;39.50;;;;;;5054718;28;20011;-65
2023/04/18 12:55:12;;;;;;;;;;;23.10;39.40;;;;;;5047700;28;19927;-69
2023/04/18 12:57:38;;;;;;;;;;;23.20;40.20;;;;;;5064388;28;20387;-70
2023/04/18 13:00:09;;;;;;;;;;;23.20;39.40;;;;;;5063276;28;19967;-76
2023/04/18 13:02:36;;;;;;;;;;;23.20;39.40;;;;;;5056891;28;19971;-70
2023/04/18 13:05:02;;;;;;;;;;;23.10;39.60;;;;;;5062458;28;19924;-72
2023/04/18 13:07:27;;;;;;;;;;;23.10;39.60;;;;;;5073179;28;19928;-71
2023/04/18 13:09:53;;;;;;;;;;;23.20;39.90;;;;;;5075606;28;19928;-74
2023/04/18 13:12:18;;;;;;;;;;;23.20;39.60;;;;;;5053814;28;19924;-78
2023/04/18 13:14:45;;;;;;;;;;;23.10;39.30;;;;;;5059218;28;19966;-75
2023/04/18 13:17:13;;;;;;;;;;;23.10;39.30;;;;;;5074127;28;19931;-76
2023/04/18 13:19:38;;;;;;;;;;;23.10;39.80;;;;;;5056353;28;19920;-81
2023/04/18 13:22:04;;;;;;;;;;;23.10;39.90;;;;;;5062272;28;19938;-71
2023/04/18 13:24:29;;;;;;;;;;;23.20;39.80;;;;;;5060356;28;19924;-74
2023/04/18 13:26:55;;;;;;;;;;;23.20;40.00;;;;;;5074911;28;19928;-68
2023/04/18 13:29:20;;;;;;;;;;;23.30;39.80;;;;;;5054196;28;20001;-74
2023/04/18 13:31:46;;;;;;;;;;;23.20;39.40;;;;;;5061635;28;19928;-66
2023/04/18 13:34:11;;;;;;;;;;;23.20;39.50;;;;;;5069518;28;19920;-66
2023/04/18 13:36:37;;;;;;;;;;;23.20;39.10;;;;;;5071198;28;19946;-67
2023/04/18 13:39:03;;;;;;;;;;;23.10;39.30;;;;;;5069060;28;19920;-66
2023/04/18 13:44:17;;;;;;;;;;;22.90;39.50;;;;;;5084813;28;19942;-66
2023/04/18 13:46:42;;;;;;;;;;;22.90;39.40;;;;;;5068365;28;20391;-67
2023/04/18 13:49:07;;;;;;;;;;;22.90;39.30;;;;;;5085931;28;19932;-71
2023/04/18 13:51:33;;;;;;;;;;;22.90;39.10;;;;;;5070404;28;19963;-67
2023/04/18 13:54:00;;;;;;;;;;;22.90;39.10;;;;;;5071678;28;20000;-66
2023/04/18 13:56:27;;;;;;;;;;;22.90;39.10;;;;;;5071436;28;19920;-69
2023/04/18 13:58:52;;;;;;;;;;;22.80;39.20;;;;;;5077461;28;19920;-69
2023/04/18 14:01:18;;;;;;;;;;;22.70;39.30;;;;;;5087848;28;19934;-69
2023/04/18 14:03:45;;;;;;;;;;;22.70;39.40;;;;;;5087851;28;19920;-69
2023/04/18 14:06:11;;;;;;;;;;;22.60;39.40;;;;;;5071695;28;20095;-70
2023/04/18 14:08:36;;;;;;;;;;;22.60;39.50;;;;;;5088732;28;19920;-71
2023/04/18 14:11:02;;;;;;;;;;;22.60;39.60;;;;;;5089056;28;19998;-69
2023/04/18 14:13:28;;;;;;;;;;;22.50;39.60;;;;;;5070061;28;19920;-69
2023/04/18 14:15:53;;;;;;;;;;;22.50;39.60;;;;;;5070971;28;19920;-68
2023/04/18 14:18:20;;;;;;;;;;;22.50;39.80;;;;;;5089569;28;20287;-69